Time;durP1;ratioP1;P1;durP2;ratioP2;P2;SDS_P1;SDS_P2;PMS_P1;PMS_P2;Temp;Humidity;BMP_temperature;BMP_pressure;BME280_temperature;BME280_humidity;BME280_pressure;Samples;Min_cycle;Max_cycle;Signal;HPM_P1;HPM_P2
2024/01/13 00:01:07;;;;;;;46.63;15.32;;;;;;;;;;5074952;28;20045;-63
2024/01/13 00:03:36;;;;;;;45.03;15.18;;;;;;;;;;5067522;28;20064;-63
2024/01/13 00:06:05;;;;;;;44.03;15.15;;;;;;;;;;5071191;28;20074;-64
2024/01/13 00:08:33;;;;;;;47.78;16.00;;;;;;;;;;5071355;28;20048;-64
2024/01/13 00:11:06;;;;;;;44.58;14.80;;;;;;;;;;5066972;28;20045;-63
2024/01/13 00:13:34;;;;;;;47.08;15.43;;;;;;;;;;5075601;28;20048;-63
2024/01/13 00:16:02;;;;;;;31.52;13.50;;;;;;;;;;5072088;28;20041;-64
2024/01/13 00:18:32;;;;;;;43.70;15.48;;;;;;;;;;5074964;28;20158;-64
2024/01/13 00:21:08;;;;;;;40.75;16.40;;;;;;;;;;5069469;28;20049;-63
2024/01/13 00:23:37;;;;;;;47.03;17.13;;;;;;;;;;5071782;28;20040;-63
2024/01/13 00:26:06;;;;;;;44.45;15.85;;;;;;;;;;5065914;28;20572;-62
2024/01/13 00:28:35;;;;;;;44.90;16.20;;;;;;;;;;5067038;28;20044;-63
2024/01/13 00:31:05;;;;;;;38.78;15.00;;;;;;;;;;5067919;28;20037;-64
2024/01/13 00:33:37;;;;;;;48.33;17.10;;;;;;;;;;5068948;28;20045;-64
2024/01/13 00:36:06;;;;;;;47.15;16.50;;;;;;;;;;5063044;28;20068;-64
2024/01/13 00:38:35;;;;;;;47.17;18.23;;;;;;;;;;5068507;28;20056;-63
2024/01/13 00:41:05;;;;;;;53.03;18.02;;;;;;;;;;5071475;28;20477;-62
2024/01/13 00:43:36;;;;;;;42.72;14.95;;;;;;;;;;5069157;28;20056;-63
2024/01/13 00:46:04;;;;;;;50.95;16.48;;;;;;;;;;5065765;28;20252;-63
2024/01/13 00:48:34;;;;;;;47.10;16.65;;;;;;;;;;5067625;28;20193;-63
2024/01/13 00:51:11;;;;;;;47.03;16.92;;;;;;;;;;5067969;28;20497;-64
2024/01/13 00:53:42;;;;;;;40.88;14.70;;;;;;;;;;5071903;28;20496;-62
2024/01/13 00:56:11;;;;;;;39.65;15.27;;;;;;;;;;5070569;28;20056;-63
2024/01/13 00:58:40;;;;;;;39.00;14.27;;;;;;;;;;5070292;28;20406;-63
2024/01/13 01:01:13;;;;;;;46.88;16.52;;;;;;;;;;5064629;28;20076;-63
2024/01/13 01:03:45;;;;;;;44.15;16.08;;;;;;;;;;5062544;28;20055;-62
2024/01/13 01:06:16;;;;;;;48.85;16.88;;;;;;;;;;5067639;28;20059;-64
2024/01/13 01:08:45;;;;;;;34.03;15.32;;;;;;;;;;5063634;28;20058;-65
2024/01/13 01:11:13;;;;;;;40.30;13.70;;;;;;;;;;5070075;28;20052;-64
2024/01/13 01:13:42;;;;;;;33.13;12.43;;;;;;;;;;5064659;28;20115;-63
2024/01/13 01:16:10;;;;;;;41.92;16.25;;;;;;;;;;5069315;28;20063;-64
2024/01/13 01:18:39;;;;;;;52.20;18.00;;;;;;;;;;5069766;28;20044;-64
2024/01/13 01:21:14;;;;;;;38.75;15.02;;;;;;;;;;5067824;28;20692;-64
2024/01/13 01:23:47;;;;;;;46.67;16.02;;;;;;;;;;5062073;28;20052;-63
2024/01/13 01:26:16;;;;;;;39.72;14.13;;;;;;;;;;5067790;28;20078;-63
2024/01/13 01:28:44;;;;;;;44.10;15.55;;;;;;;;;;5071184;28;20045;-63
2024/01/13 01:31:13;;;;;;;48.63;14.80;;;;;;;;;;5070279;28;20110;-65
2024/01/13 01:33:41;;;;;;;43.95;15.32;;;;;;;;;;5059002;28;20056;-63
2024/01/13 01:36:10;;;;;;;38.78;13.13;;;;;;;;;;5069612;28;20131;-63
2024/01/13 01:38:38;;;;;;;36.70;13.90;;;;;;;;;;5067794;28;20109;-64
2024/01/13 01:41:14;;;;;;;41.67;13.88;;;;;;;;;;5071054;28;20049;-62
2024/01/13 01:43:45;;;;;;;36.17;13.52;;;;;;;;;;5069228;28;20131;-65
2024/01/13 01:46:14;;;;;;;41.75;14.50;;;;;;;;;;5069731;28;20076;-63
2024/01/13 01:48:44;;;;;;;33.63;12.25;;;;;;;;;;5069166;28;20345;-63
2024/01/13 01:51:14;;;;;;;34.83;12.20;;;;;;;;;;5068380;28;20043;-63
2024/01/13 01:53:43;;;;;;;32.40;11.77;;;;;;;;;;5069643;28;20501;-63
2024/01/13 01:56:15;;;;;;;37.83;14.00;;;;;;;;;;5069438;28;20048;-62
2024/01/13 01:58:43;;;;;;;34.78;12.55;;;;;;;;;;5065986;28;20072;-64
2024/01/13 02:01:12;;;;;;;34.08;12.68;;;;;;;;;;5069796;28;20082;-62
2024/01/13 02:03:41;;;;;;;36.60;12.25;;;;;;;;;;5063450;28;20094;-63
2024/01/13 02:06:10;;;;;;;34.30;12.52;;;;;;;;;;5067629;28;20497;-63
2024/01/13 02:08:38;;;;;;;31.33;11.63;;;;;;;;;;5060588;28;20079;-63
2024/01/13 02:11:10;;;;;;;35.85;12.75;;;;;;;;;;5066569;28;20471;-64
2024/01/13 02:13:41;;;;;;;37.80;13.15;;;;;;;;;;5069898;28;20443;-64
2024/01/13 02:16:10;;;;;;;31.63;13.85;;;;;;;;;;5063201;28;20048;-64
2024/01/13 02:18:39;;;;;;;31.65;11.68;;;;;;;;;;5063776;28;20041;-63
2024/01/13 02:21:12;;;;;;;34.08;12.82;;;;;;;;;;5068186;28;20055;-64
2024/01/13 02:23:45;;;;;;;35.60;12.43;;;;;;;;;;5066229;28;20068;-63
2024/01/13 02:26:13;;;;;;;27.67;11.55;;;;;;;;;;5063002;28;20055;-63
2024/01/13 02:28:42;;;;;;;39.85;13.30;;;;;;;;;;5065044;28;20044;-62
2024/01/13 02:31:16;;;;;;;30.70;11.70;;;;;;;;;;5069174;28;20519;-63
2024/01/13 02:33:49;;;;;;;29.87;11.30;;;;;;;;;;5063786;28;20349;-63
2024/01/13 02:36:19;;;;;;;35.25;13.20;;;;;;;;;;5056787;28;20350;-63
2024/01/13 02:38:49;;;;;;;36.28;13.45;;;;;;;;;;5064857;28;20044;-64
2024/01/13 02:41:17;;;;;;;37.08;12.82;;;;;;;;;;5068708;28;20102;-63
2024/01/13 02:43:45;;;;;;;35.05;13.82;;;;;;;;;;5068107;28;20048;-65
2024/01/13 02:46:14;;;;;;;32.53;13.02;;;;;;;;;;5061112;28;20118;-64
2024/01/13 02:48:44;;;;;;;41.78;14.65;;;;;;;;;;5057890;28;20051;-62
2024/01/13 02:51:14;;;;;;;40.40;13.48;;;;;;;;;;5058927;28;20076;-63
2024/01/13 02:53:45;;;;;;;33.67;12.45;;;;;;;;;;5056660;28;20036;-64
2024/01/13 02:56:15;;;;;;;43.22;14.75;;;;;;;;;;5063629;28;20391;-63
2024/01/13 02:58:43;;;;;;;34.55;12.48;;;;;;;;;;5067521;28;20044;-65
2024/01/13 03:01:14;;;;;;;35.05;13.57;;;;;;;;;;5064029;28;20059;-63
2024/01/13 03:03:49;;;;;;;37.22;13.63;;;;;;;;;;5061178;28;20501;-63
2024/01/13 03:06:21;;;;;;;29.85;12.93;;;;;;;;;;5066329;28;20056;-65
2024/01/13 03:08:49;;;;;;;37.85;13.50;;;;;;;;;;5061191;28;20048;-67
2024/01/13 03:11:19;;;;;;;40.00;13.77;;;;;;;;;;5068533;28;20063;-64
2024/01/13 03:13:51;;;;;;;31.25;13.13;;;;;;;;;;5068757;28;20048;-64
2024/01/13 03:16:20;;;;;;;30.70;12.70;;;;;;;;;;5058158;28;20173;-64
2024/01/13 03:18:48;;;;;;;28.80;11.60;;;;;;;;;;5063403;28;20044;-63
2024/01/13 03:21:17;;;;;;;32.00;14.25;;;;;;;;;;5057953;28;20665;-64
2024/01/13 03:23:45;;;;;;;36.92;14.23;;;;;;;;;;5065386;28;20047;-64
2024/01/13 03:26:14;;;;;;;31.65;12.55;;;;;;;;;;5068671;28;20114;-64
2024/01/13 03:28:44;;;;;;;35.08;12.27;;;;;;;;;;5067644;28;20048;-63
2024/01/13 03:31:13;;;;;;;31.35;13.13;;;;;;;;;;5067155;28;20099;-63
2024/01/13 03:33:45;;;;;;;32.75;13.95;;;;;;;;;;5066007;28;20053;-63
2024/01/13 03:36:15;;;;;;;38.17;13.13;;;;;;;;;;5068459;28;20173;-63
2024/01/13 03:38:44;;;;;;;33.67;13.60;;;;;;;;;;5065635;28;20607;-63
2024/01/13 03:41:13;;;;;;;32.15;12.30;;;;;;;;;;5058964;28;20056;-63
2024/01/13 03:43:42;;;;;;;35.45;12.63;;;;;;;;;;5067620;28;20524;-65
2024/01/13 03:46:12;;;;;;;38.95;12.77;;;;;;;;;;5067442;28;20064;-64
2024/01/13 03:48:41;;;;;;;34.55;12.65;;;;;;;;;;5062676;28;20091;-63
2024/01/13 03:51:10;;;;;;;36.35;13.40;;;;;;;;;;5068167;28;20504;-63
2024/01/13 03:53:39;;;;;;;39.40;13.57;;;;;;;;;;5068949;28;20106;-62
2024/01/13 03:56:08;;;;;;;40.80;15.15;;;;;;;;;;5066136;28;20049;-64
2024/01/13 03:58:38;;;;;;;38.13;13.82;;;;;;;;;;5057593;28;20101;-64
2024/01/13 04:01:07;;;;;;;31.85;12.80;;;;;;;;;;5068440;28;20131;-63
2024/01/13 04:03:36;;;;;;;39.70;14.65;;;;;;;;;;5054624;28;20497;-62
2024/01/13 04:06:06;;;;;;;38.78;14.18;;;;;;;;;;5069266;28;20063;-63
2024/01/13 04:08:35;;;;;;;41.90;14.93;;;;;;;;;;5071852;28;20666;-62
2024/01/13 04:11:07;;;;;;;37.88;14.75;;;;;;;;;;5063684;28;20110;-63
2024/01/13 04:13:36;;;;;;;37.90;13.32;;;;;;;;;;5063793;28;20059;-63
2024/01/13 04:16:05;;;;;;;40.22;13.68;;;;;;;;;;5066129;28;20048;-64
2024/01/13 04:18:33;;;;;;;35.75;13.00;;;;;;;;;;5063546;28;20055;-63
2024/01/13 04:21:04;;;;;;;42.03;15.77;;;;;;;;;;5069714;28;20058;-64
2024/01/13 04:23:48;;;;;;;31.23;12.57;;;;;;;;;;5057143;28;20111;-64
2024/01/13 04:26:17;;;;;;;37.33;13.40;;;;;;;;;;5070990;28;20138;-66
2024/01/13 04:28:45;;;;;;;34.85;13.60;;;;;;;;;;5057070;28;20076;-63
2024/01/13 04:31:13;;;;;;;29.83;12.15;;;;;;;;;;5070415;28;20076;-65
2024/01/13 04:33:42;;;;;;;36.95;13.40;;;;;;;;;;5060416;28;20049;-66
2024/01/13 04:36:12;;;;;;;29.05;11.63;;;;;;;;;;5063957;28;20052;-64
2024/01/13 04:38:40;;;;;;;36.47;13.55;;;;;;;;;;5071454;28;20127;-63
2024/01/13 04:41:09;;;;;;;33.53;13.00;;;;;;;;;;5069838;28;20045;-62
2024/01/13 04:43:38;;;;;;;40.05;13.98;;;;;;;;;;5060032;28;20493;-63
2024/01/13 04:46:07;;;;;;;31.45;12.32;;;;;;;;;;5069217;28;20053;-64
2024/01/13 04:48:36;;;;;;;32.38;13.20;;;;;;;;;;5066325;28;20053;-65
2024/01/13 04:51:05;;;;;;;34.85;13.38;;;;;;;;;;5061791;28;20047;-63
2024/01/13 04:53:35;;;;;;;39.08;15.90;;;;;;;;;;5057105;28;20067;-62
2024/01/13 04:56:03;;;;;;;39.97;14.27;;;;;;;;;;5062142;28;20052;-64
2024/01/13 04:58:31;;;;;;;36.45;13.27;;;;;;;;;;5064992;28;20049;-64
2024/01/13 05:01:00;;;;;;;34.45;13.43;;;;;;;;;;5065674;28;20118;-65
2024/01/13 05:03:28;;;;;;;35.13;13.85;;;;;;;;;;5070873;28;20131;-63
2024/01/13 05:05:57;;;;;;;32.05;12.30;;;;;;;;;;5063900;28;20048;-63
2024/01/13 05:08:25;;;;;;;35.38;13.57;;;;;;;;;;5067069;28;20493;-62
2024/01/13 05:10:55;;;;;;;34.10;13.27;;;;;;;;;;5068208;28;20086;-65
2024/01/13 05:13:24;;;;;;;36.42;14.75;;;;;;;;;;5069763;28;20052;-63
2024/01/13 05:15:52;;;;;;;38.50;13.20;;;;;;;;;;5069231;28;20138;-63
2024/01/13 05:18:20;;;;;;;38.55;14.20;;;;;;;;;;5068591;28;20485;-63
2024/01/13 05:20:49;;;;;;;34.15;14.43;;;;;;;;;;5071054;28;20487;-63
2024/01/13 05:23:17;;;;;;;34.22;12.95;;;;;;;;;;5069602;28;20049;-64
2024/01/13 05:25:46;;;;;;;35.67;13.15;;;;;;;;;;5068170;28;20056;-63
2024/01/13 05:28:16;;;;;;;33.72;12.35;;;;;;;;;;5066317;28;20044;-63
2024/01/13 05:30:44;;;;;;;29.58;11.82;;;;;;;;;;5066381;28;20498;-62
2024/01/13 05:33:12;;;;;;;31.38;12.95;;;;;;;;;;5069571;28;20037;-62
2024/01/13 05:35:41;;;;;;;28.35;13.07;;;;;;;;;;5067429;28;20050;-63
2024/01/13 05:38:09;;;;;;;36.20;13.30;;;;;;;;;;5070050;28;20048;-64
2024/01/13 05:40:40;;;;;;;39.00;14.18;;;;;;;;;;5068602;28;20102;-64
2024/01/13 05:43:09;;;;;;;33.40;11.85;;;;;;;;;;5070248;28;20045;-62
2024/01/13 05:45:39;;;;;;;27.08;12.52;;;;;;;;;;5069888;28;20051;-65
2024/01/13 05:48:07;;;;;;;35.85;14.57;;;;;;;;;;5060970;28;20052;-65
2024/01/13 05:50:36;;;;;;;31.02;12.98;;;;;;;;;;5067754;28;20417;-64
2024/01/13 05:53:05;;;;;;;43.03;15.40;;;;;;;;;;5065781;28;20040;-64
2024/01/13 05:55:33;;;;;;;39.20;14.20;;;;;;;;;;5067578;28;20474;-63
2024/01/13 05:58:02;;;;;;;37.28;12.95;;;;;;;;;;5067311;28;20052;-64
2024/01/13 06:00:30;;;;;;;33.55;12.88;;;;;;;;;;5068662;28;20080;-63
2024/01/13 06:03:00;;;;;;;37.22;13.80;;;;;;;;;;5062234;28;20048;-64
2024/01/13 06:05:31;;;;;;;31.83;12.45;;;;;;;;;;5063465;28;20532;-64
2024/01/13 06:07:59;;;;;;;33.97;13.65;;;;;;;;;;5060366;28;20493;-64
2024/01/13 06:10:28;;;;;;;28.98;11.23;;;;;;;;;;5067634;28;20040;-64
2024/01/13 06:12:59;;;;;;;28.40;11.57;;;;;;;;;;5065628;28;20079;-63
2024/01/13 06:15:28;;;;;;;29.42;12.10;;;;;;;;;;5061513;28;20718;-64
2024/01/13 06:17:57;;;;;;;28.88;10.73;;;;;;;;;;5063106;28;20053;-63
2024/01/13 06:20:27;;;;;;;31.10;11.90;;;;;;;;;;5065375;28;20052;-64
2024/01/13 06:22:56;;;;;;;31.40;11.85;;;;;;;;;;5061643;28;20047;-64
2024/01/13 06:25:24;;;;;;;32.22;11.35;;;;;;;;;;5067309;28;20059;-64
2024/01/13 06:27:53;;;;;;;28.77;11.55;;;;;;;;;;5059312;28;20131;-65
2024/01/13 06:30:21;;;;;;;25.60;11.40;;;;;;;;;;5066713;28;20295;-63
2024/01/13 06:32:50;;;;;;;33.67;12.57;;;;;;;;;;5068770;28;20044;-63
2024/01/13 06:35:18;;;;;;;30.83;11.73;;;;;;;;;;5060732;28;20502;-64
2024/01/13 06:37:48;;;;;;;29.10;11.60;;;;;;;;;;5067149;28;20048;-63
2024/01/13 06:40:16;;;;;;;24.98;10.07;;;;;;;;;;5064781;28;20515;-63
2024/01/13 06:42:45;;;;;;;21.92;10.63;;;;;;;;;;5064304;28;20048;-63
2024/01/13 06:45:13;;;;;;;24.35;9.68;;;;;;;;;;5066351;28;20098;-63
2024/01/13 06:47:42;;;;;;;23.83;10.30;;;;;;;;;;5063226;28;20132;-63
2024/01/13 06:50:10;;;;;;;27.45;10.90;;;;;;;;;;5063391;28;20467;-63
2024/01/13 06:52:39;;;;;;;26.25;10.68;;;;;;;;;;5064157;28;20052;-64
2024/01/13 06:55:10;;;;;;;30.40;10.20;;;;;;;;;;5065982;28;20060;-64
2024/01/13 06:57:38;;;;;;;24.25;9.48;;;;;;;;;;5062610;28;20056;-65
2024/01/13 07:00:07;;;;;;;26.40;9.57;;;;;;;;;;5063983;28;20432;-64
2024/01/13 07:02:36;;;;;;;28.98;10.75;;;;;;;;;;5062215;28;20041;-63
2024/01/13 07:05:06;;;;;;;25.55;10.75;;;;;;;;;;5055865;28;20251;-64
2024/01/13 07:07:34;;;;;;;29.35;10.52;;;;;;;;;;5063105;28;20056;-67
2024/01/13 07:10:03;;;;;;;20.05;9.90;;;;;;;;;;5066781;28;20045;-64
2024/01/13 07:12:33;;;;;;;27.52;11.05;;;;;;;;;;5063945;28;20063;-62
2024/01/13 07:15:01;;;;;;;27.35;11.93;;;;;;;;;;5061223;28;20067;-63
2024/01/13 07:17:31;;;;;;;24.13;10.98;;;;;;;;;;5063049;28;20086;-65
2024/01/13 07:20:00;;;;;;;25.17;11.00;;;;;;;;;;5056045;28;20076;-67
2024/01/13 07:22:29;;;;;;;22.00;9.60;;;;;;;;;;5056712;28;20135;-64
2024/01/13 07:24:57;;;;;;;21.75;9.88;;;;;;;;;;5055825;28;20055;-64
2024/01/13 07:27:26;;;;;;;25.35;11.68;;;;;;;;;;5058628;28;20040;-65
2024/01/13 07:29:55;;;;;;;22.20;9.73;;;;;;;;;;5065460;28;20517;-64
2024/01/13 07:32:29;;;;;;;;;;;;;;;;;;5064421;28;20378;-66
2024/01/13 07:34:57;;;;;;;19.35;9.35;;;;;;;;;;5065164;28;19928;-65
2024/01/13 07:37:26;;;;;;;28.55;11.30;;;;;;;;;;5067264;28;20048;-63
2024/01/13 07:39:54;;;;;;;24.50;10.02;;;;;;;;;;5069896;28;20052;-64
2024/01/13 07:42:23;;;;;;;22.30;10.13;;;;;;;;;;5066545;28;20040;-64
2024/01/13 07:44:51;;;;;;;26.85;10.48;;;;;;;;;;5066361;28;20377;-64
2024/01/13 07:47:21;;;;;;;23.77;9.98;;;;;;;;;;5064371;28;20498;-63
2024/01/13 07:49:49;;;;;;;23.88;10.10;;;;;;;;;;5062805;28;20131;-64
2024/01/13 07:52:18;;;;;;;25.17;9.75;;;;;;;;;;5067545;28;20052;-64
2024/01/13 07:54:46;;;;;;;24.42;9.52;;;;;;;;;;5064677;28;20121;-64
2024/01/13 07:57:15;;;;;;;25.15;11.02;;;;;;;;;;5070512;28;20052;-65
2024/01/13 07:59:43;;;;;;;26.98;11.20;;;;;;;;;;5068212;28;20374;-64
2024/01/13 08:02:12;;;;;;;28.05;10.65;;;;;;;;;;5069373;28;20049;-64
2024/01/13 08:04:43;;;;;;;26.48;10.63;;;;;;;;;;5067150;28;20092;-66
2024/01/13 08:07:11;;;;;;;31.30;9.50;;;;;;;;;;5068927;28;20274;-65
2024/01/13 08:09:40;;;;;;;27.15;10.68;;;;;;;;;;5067246;28;20393;-65
2024/01/13 08:12:09;;;;;;;28.55;10.90;;;;;;;;;;5071412;28;20106;-63
2024/01/13 08:14:37;;;;;;;29.20;10.23;;;;;;;;;;5062013;28;20041;-64
2024/01/13 08:17:06;;;;;;;29.05;10.40;;;;;;;;;;5062208;28;20531;-66
2024/01/13 08:19:34;;;;;;;29.00;11.00;;;;;;;;;;5067608;28;20052;-65
2024/01/13 08:22:06;;;;;;;27.30;10.20;;;;;;;;;;5066820;28;20049;-64
2024/01/13 08:24:34;;;;;;;17.83;7.97;;;;;;;;;;5057707;28;20044;-66
2024/01/13 08:27:03;;;;;;;25.48;9.35;;;;;;;;;;5069541;28;20049;-62
2024/01/13 08:29:31;;;;;;;24.23;10.10;;;;;;;;;;5062549;28;20052;-64
2024/01/13 08:32:00;;;;;;;22.48;9.18;;;;;;;;;;5070202;28;20881;-65
2024/01/13 08:34:28;;;;;;;20.27;8.80;;;;;;;;;;5070793;28;20036;-64
2024/01/13 08:36:57;;;;;;;28.95;10.38;;;;;;;;;;5070893;28;20509;-65
2024/01/13 08:39:27;;;;;;;26.70;9.55;;;;;;;;;;5066066;28;20137;-65
2024/01/13 08:41:55;;;;;;;23.60;10.00;;;;;;;;;;5070360;28;20037;-64
2024/01/13 08:44:24;;;;;;;23.77;9.02;;;;;;;;;;5060958;28;20483;-66
2024/01/13 08:46:52;;;;;;;18.70;9.43;;;;;;;;;;5068899;28;20133;-63
2024/01/13 08:49:21;;;;;;;24.20;10.05;;;;;;;;;;5071003;28;20102;-66
2024/01/13 08:51:50;;;;;;;19.77;9.00;;;;;;;;;;5068354;28;20103;-67
2024/01/13 08:54:19;;;;;;;25.95;9.65;;;;;;;;;;5061421;28;20481;-65
2024/01/13 08:56:49;;;;;;;20.63;8.95;;;;;;;;;;5068523;28;20055;-66
2024/01/13 08:59:17;;;;;;;26.20;11.20;;;;;;;;;;5070312;28;20058;-65
2024/01/13 09:01:46;;;;;;;19.27;8.63;;;;;;;;;;5069290;28;20094;-65
2024/01/13 09:04:15;;;;;;;26.02;9.32;;;;;;;;;;5069303;28;20137;-63
2024/01/13 09:06:43;;;;;;;24.95;10.23;;;;;;;;;;5069254;28;20044;-63
2024/01/13 09:09:11;;;;;;;27.52;9.98;;;;;;;;;;5070309;28;20068;-64
2024/01/13 09:11:42;;;;;;;25.80;11.68;;;;;;;;;;5061998;28;20047;-63
2024/01/13 09:14:13;;;;;;;20.95;8.55;;;;;;;;;;5064469;28;20448;-63
2024/01/13 09:16:43;;;;;;;21.35;10.77;;;;;;;;;;5065096;28;20045;-63
2024/01/13 09:19:12;;;;;;;30.40;11.40;;;;;;;;;;5066905;28;20489;-67
2024/01/13 09:21:42;;;;;;;28.65;9.88;;;;;;;;;;5058943;28;20048;-65
2024/01/13 09:24:14;;;;;;;27.52;12.38;;;;;;;;;;5062398;28;20098;-66
2024/01/13 09:26:42;;;;;;;23.02;10.45;;;;;;;;;;5065111;28;20070;-65
2024/01/13 09:29:16;;;;;;;24.67;10.55;;;;;;;;;;5063591;28;20540;-65
2024/01/13 09:31:48;;;;;;;28.02;10.80;;;;;;;;;;5057996;28;20057;-66
2024/01/13 09:34:17;;;;;;;32.15;10.80;;;;;;;;;;5064362;28;20060;-67
2024/01/13 09:36:46;;;;;;;27.35;11.35;;;;;;;;;;5064577;28;20130;-65
2024/01/13 09:39:20;;;;;;;24.90;10.45;;;;;;;;;;5064743;28;20059;-66
2024/01/13 09:41:50;;;;;;;25.67;11.93;;;;;;;;;;5067010;28;20101;-66
2024/01/13 09:44:22;;;;;;;29.60;12.48;;;;;;;;;;5061900;28;20049;-66
2024/01/13 09:46:53;;;;;;;29.63;11.93;;;;;;;;;;5060041;28;20537;-66
2024/01/13 09:49:24;;;;;;;27.35;11.00;;;;;;;;;;5065475;28;20071;-66
2024/01/13 09:51:53;;;;;;;34.67;11.80;;;;;;;;;;5065663;28;20040;-66
2024/01/13 09:54:23;;;;;;;33.13;11.38;;;;;;;;;;5065463;28;20060;-66
2024/01/13 09:56:53;;;;;;;19.52;9.38;;;;;;;;;;5066260;28;20149;-66
2024/01/13 09:59:25;;;;;;;25.80;10.95;;;;;;;;;;5063089;28;20548;-65
2024/01/13 10:01:54;;;;;;;18.95;8.73;;;;;;;;;;5058826;28;20067;-66
2024/01/13 10:04:23;;;;;;;27.42;11.05;;;;;;;;;;5065769;28;20497;-64
2024/01/13 10:06:52;;;;;;;28.30;10.13;;;;;;;;;;5067161;28;20455;-66
2024/01/13 10:09:21;;;;;;;25.23;10.85;;;;;;;;;;5059004;28;20071;-66
2024/01/13 10:12:05;;;;;;;28.35;11.45;;;;;;;;;;5068312;28;20048;-66
2024/01/13 10:14:38;;;;;;;27.08;10.85;;;;;;;;;;5059734;28;20047;-65
2024/01/13 10:17:07;;;;;;;26.30;10.77;;;;;;;;;;5065251;28;20489;-65
2024/01/13 10:19:36;;;;;;;28.00;10.38;;;;;;;;;;5064580;28;20043;-66
2024/01/13 10:22:05;;;;;;;25.52;10.43;;;;;;;;;;5066981;28;20041;-67
2024/01/13 10:24:35;;;;;;;19.17;8.90;;;;;;;;;;5068407;28;20044;-66
2024/01/13 10:27:04;;;;;;;27.60;10.75;;;;;;;;;;5055474;28;20060;-67
2024/01/13 10:29:33;;;;;;;24.10;10.57;;;;;;;;;;5065715;28;20044;-67
2024/01/13 10:32:03;;;;;;;25.33;11.65;;;;;;;;;;5058111;28;20046;-67
2024/01/13 10:34:32;;;;;;;20.45;8.98;;;;;;;;;;5062331;28;20046;-66
2024/01/13 10:37:09;;;;;;;20.83;9.27;;;;;;;;;;5066748;28;20048;-65
2024/01/13 10:39:38;;;;;;;19.95;7.95;;;;;;;;;;5063690;28;20072;-66
2024/01/13 10:42:09;;;;;;;15.57;8.27;;;;;;;;;;5066308;28;20133;-66
2024/01/13 10:44:43;;;;;;;16.75;8.07;;;;;;;;;;5060871;28;20468;-66
2024/01/13 10:47:15;;;;;;;19.17;8.10;;;;;;;;;;5061631;28;20063;-63
2024/01/13 10:49:48;;;;;;;18.52;7.35;;;;;;;;;;5060489;28;20048;-63
2024/01/13 10:52:18;;;;;;;22.40;9.38;;;;;;;;;;5059131;28;20051;-69
2024/01/13 10:54:46;;;;;;;21.23;9.80;;;;;;;;;;5065230;28;20237;-68
2024/01/13 10:57:16;;;;;;;20.20;8.15;;;;;;;;;;5063445;28;20059;-69
2024/01/13 10:59:47;;;;;;;22.80;9.23;;;;;;;;;;5064780;28;20051;-66
2024/01/13 11:02:18;;;;;;;29.23;10.60;;;;;;;;;;5055606;28;20064;-67
2024/01/13 11:04:48;;;;;;;25.52;10.68;;;;;;;;;;5056285;28;20443;-68
2024/01/13 11:07:16;;;;;;;22.33;11.23;;;;;;;;;;5052161;28;20048;-70
2024/01/13 11:09:45;;;;;;;24.08;10.73;;;;;;;;;;5054639;28;20052;-68
2024/01/13 11:12:19;;;;;;;25.90;10.05;;;;;;;;;;5055025;28;20128;-72
2024/01/13 11:14:53;;;;;;;26.20;11.30;;;;;;;;;;5055684;28;20040;-67
2024/01/13 11:17:23;;;;;;;20.33;10.30;;;;;;;;;;5055077;28;20048;-69
2024/01/13 11:19:51;;;;;;;24.25;10.80;;;;;;;;;;5056226;28;20422;-69
2024/01/13 11:22:34;;;;;;;23.17;10.13;;;;;;;;;;5056425;28;20511;-68
2024/01/13 11:25:09;;;;;;;25.83;10.45;;;;;;;;;;5055018;28;20558;-67
2024/01/13 11:27:37;;;;;;;21.67;9.45;;;;;;;;;;5064717;28;20044;-68
2024/01/13 11:30:07;;;;;;;25.33;10.80;;;;;;;;;;5059213;28;20076;-69
2024/01/13 11:32:38;;;;;;;23.02;10.35;;;;;;;;;;5055246;28;20484;-67
2024/01/13 11:35:07;;;;;;;20.08;9.95;;;;;;;;;;5051765;28;20496;-68
2024/01/13 11:37:37;;;;;;;23.25;10.55;;;;;;;;;;5051755;28;20051;-68
2024/01/13 11:40:06;;;;;;;22.00;10.00;;;;;;;;;;5052568;28;20418;-71
2024/01/13 11:42:34;;;;;;;25.48;10.63;;;;;;;;;;5052786;28;20497;-70
2024/01/13 11:45:04;;;;;;;21.88;9.77;;;;;;;;;;5052640;28;20079;-73
2024/01/13 11:47:33;;;;;;;26.55;9.93;;;;;;;;;;5054263;28;20086;-69
2024/01/13 11:50:25;;;;;;;18.63;9.15;;;;;;;;;;5063941;28;20456;-68
2024/01/13 11:52:53;;;;;;;25.25;11.13;;;;;;;;;;5061609;28;20060;-68
2024/01/13 11:55:22;;;;;;;22.58;9.18;;;;;;;;;;5056152;28;20754;-68
2024/01/13 11:57:50;;;;;;;19.95;8.68;;;;;;;;;;5057389;28;20051;-69
2024/01/13 12:00:20;;;;;;;21.70;9.57;;;;;;;;;;5065759;28;20142;-70
2024/01/13 12:02:49;;;;;;;16.10;8.10;;;;;;;;;;5062659;28;20076;-70
2024/01/13 12:05:19;;;;;;;18.85;7.72;;;;;;;;;;5058603;28;20556;-70
2024/01/13 12:07:47;;;;;;;18.80;8.52;;;;;;;;;;5059152;28;20052;-69
2024/01/13 12:10:16;;;;;;;17.70;8.60;;;;;;;;;;5064538;28;20131;-70
2024/01/13 12:12:44;;;;;;;21.15;9.15;;;;;;;;;;5058101;28;20547;-70
2024/01/13 12:15:12;;;;;;;21.08;8.73;;;;;;;;;;5059719;28;20047;-70
2024/01/13 12:17:41;;;;;;;21.83;9.70;;;;;;;;;;5061974;28;20045;-70
2024/01/13 12:20:11;;;;;;;23.23;8.35;;;;;;;;;;5063552;28;20580;-70
2024/01/13 12:22:41;;;;;;;19.58;8.52;;;;;;;;;;5060104;28;20506;-70
2024/01/13 12:25:09;;;;;;;18.60;7.90;;;;;;;;;;5071176;28;20049;-70
2024/01/13 12:27:38;;;;;;;17.25;7.75;;;;;;;;;;5063372;28;20048;-71
2024/01/13 12:30:07;;;;;;;18.33;8.05;;;;;;;;;;5065848;28;20497;-74
2024/01/13 12:32:37;;;;;;;13.35;6.47;;;;;;;;;;5068940;28;20054;-70
2024/01/13 12:35:07;;;;;;;14.82;6.80;;;;;;;;;;5055548;28;20052;-74
2024/01/13 12:37:36;;;;;;;11.20;5.88;;;;;;;;;;5062674;28;20128;-71
2024/01/13 12:40:06;;;;;;;13.00;6.15;;;;;;;;;;5065548;28;20136;-72
2024/01/13 12:42:35;;;;;;;12.45;6.75;;;;;;;;;;5061833;28;20114;-72
2024/01/13 12:45:03;;;;;;;13.15;6.32;;;;;;;;;;5066928;28;20060;-68
2024/01/13 12:47:32;;;;;;;14.30;6.15;;;;;;;;;;5059801;28;20496;-72
2024/01/13 12:50:07;;;;;;;12.63;5.70;;;;;;;;;;5064783;28;20041;-74
2024/01/13 12:52:39;;;;;;;13.35;6.18;;;;;;;;;;5065224;28;20056;-69
2024/01/13 12:55:09;;;;;;;12.75;5.88;;;;;;;;;;5067185;28;20048;-70
2024/01/13 12:57:44;;;;;;;12.20;5.72;;;;;;;;;;5066368;28;20493;-68
2024/01/13 13:00:14;;;;;;;12.25;6.03;;;;;;;;;;5059599;28;20462;-67
2024/01/13 13:02:44;;;;;;;13.70;6.10;;;;;;;;;;5062274;28;20061;-67
2024/01/13 13:05:13;;;;;;;17.25;5.57;;;;;;;;;;5062613;28;20351;-70
2024/01/13 13:07:41;;;;;;;8.30;3.90;;;;;;;;;;5055983;28;20036;-73
2024/01/13 13:10:11;;;;;;;11.93;5.68;;;;;;;;;;5037539;28;20729;-72
2024/01/13 13:12:40;;;;;;;12.35;6.07;;;;;;;;;;5042521;28;20052;-77
2024/01/13 13:15:08;;;;;;;16.33;5.97;;;;;;;;;;5050901;28;20584;-74
2024/01/13 13:17:40;;;;;;;15.90;6.45;;;;;;;;;;5061545;28;20049;-71
2024/01/13 13:20:10;;;;;;;12.23;5.55;;;;;;;;;;5064807;28;20057;-75
2024/01/13 13:22:38;;;;;;;18.00;6.45;;;;;;;;;;5068708;28;20517;-70
2024/01/13 13:25:07;;;;;;;16.90;6.72;;;;;;;;;;5067416;28;20123;-70
2024/01/13 13:27:47;;;;;;;11.98;4.95;;;;;;;;;;5067611;28;20385;-73
2024/01/13 13:30:16;;;;;;;16.33;5.53;;;;;;;;;;5061009;28;20049;-70
2024/01/13 13:32:45;;;;;;;18.15;6.40;;;;;;;;;;5068666;28;20052;-68
2024/01/13 13:35:16;;;;;;;11.88;5.85;;;;;;;;;;5060780;28;20059;-69
2024/01/13 13:37:48;;;;;;;9.52;5.25;;;;;;;;;;5066561;28;20045;-69
2024/01/13 13:40:17;;;;;;;14.57;6.90;;;;;;;;;;5063540;28;20045;-69
2024/01/13 13:42:47;;;;;;;15.52;6.78;;;;;;;;;;5068001;28;20044;-70
2024/01/13 13:45:16;;;;;;;12.73;6.07;;;;;;;;;;5053767;28;20138;-68
2024/01/13 13:47:44;;;;;;;16.48;6.63;;;;;;;;;;5077582;28;20500;-72
2024/01/13 13:50:13;;;;;;;13.70;6.03;;;;;;;;;;5072881;28;20053;-72
2024/01/13 13:52:45;;;;;;;12.52;5.30;;;;;;;;;;5060817;28;20056;-79
2024/01/13 13:55:13;;;;;;;12.82;6.10;;;;;;;;;;5075753;28;20105;-69
2024/01/13 13:57:42;;;;;;;14.95;6.18;;;;;;;;;;5068625;28;20079;-69
2024/01/13 14:00:13;;;;;;;15.45;6.80;;;;;;;;;;5069129;28;20138;-70
2024/01/13 14:02:41;;;;;;;16.15;6.50;;;;;;;;;;5067015;28;20052;-70
2024/01/13 14:05:10;;;;;;;14.27;6.18;;;;;;;;;;5062372;28;20080;-71
2024/01/13 14:07:47;;;;;;;20.85;8.35;;;;;;;;;;5057546;28;20041;-74
2024/01/13 14:10:16;;;;;;;20.88;7.68;;;;;;;;;;5062639;28;20052;-72
2024/01/13 14:12:44;;;;;;;14.88;7.40;;;;;;;;;;5059383;28;20048;-75
2024/01/13 14:15:15;;;;;;;15.68;6.10;;;;;;;;;;5065876;28;20044;-76
2024/01/13 14:17:46;;;;;;;16.23;7.30;;;;;;;;;;5063101;28;20048;-75
2024/01/13 14:20:16;;;;;;;17.77;8.77;;;;;;;;;;5065332;28;20050;-78
2024/01/13 14:22:50;;;;;;;21.17;9.50;;;;;;;;;;5052682;28;20041;-73
2024/01/13 14:25:19;;;;;;;20.13;9.25;;;;;;;;;;5053915;28;20048;-67
2024/01/13 14:27:48;;;;;;;20.90;9.27;;;;;;;;;;5054685;28;20236;-71
2024/01/13 14:30:18;;;;;;;27.25;11.02;;;;;;;;;;5051186;28;20066;-74
2024/01/13 14:32:47;;;;;;;24.13;9.02;;;;;;;;;;5051915;28;20416;-73
2024/01/13 14:35:16;;;;;;;20.75;8.95;;;;;;;;;;5055428;28;20052;-78